Time;durP1;ratioP1;P1;durP2;ratioP2;P2;SDS_P1;SDS_P2;PMS_P1;PMS_P2;Temp;Humidity;BMP_temperature;BMP_pressure;BME280_temperature;BME280_humidity;BME280_pressure;Samples;Min_cycle;Max_cycle;Signal;HPM_P1;HPM_P2
2022/08/04 00:01:21;;;;;;;1999.90;999.90;;;;;;;24.04;47.36;95356.66;5010229;28;20025;-65
2022/08/04 00:04:14;;;;;;;1999.90;999.90;;;;;;;24.05;47.29;95360.94;5010977;28;20030;-66
2022/08/04 00:07:01;;;;;;;1999.90;999.90;;;;;;;24.00;47.74;95355.88;5010417;28;20104;-66
2022/08/04 00:09:37;;;;;;;1999.90;999.90;;;;;;;23.98;47.77;95358.22;5009786;28;20026;-66
2022/08/04 00:12:05;;;;;;;1999.90;999.90;;;;;;;23.84;47.91;95346.13;5010088;28;20026;-65
2022/08/04 00:14:34;;;;;;;1999.90;999.90;;;;;;;23.73;47.89;95331.75;5011059;28;20061;-65
2022/08/04 00:17:05;;;;;;;1999.90;999.90;;;;;;;23.95;48.04;95358.97;5009132;28;20022;-65
2022/08/04 00:19:46;;;;;;;1999.90;999.90;;;;;;;23.44;47.90;95290.16;5008660;28;20049;-65
2022/08/04 00:22:12;;;;;;;1999.90;999.90;;;;;;;23.53;47.78;95303.34;5010436;28;20033;-65
2022/08/04 00:24:39;;;;;;;1999.90;999.90;;;;;;;23.67;47.97;95330.59;5010135;28;20034;-66
2022/08/04 00:27:07;;;;;;;1999.90;999.90;;;;;;;23.71;47.95;95346.91;5009701;28;20032;-66
2022/08/04 00:29:33;;;;;;;1999.90;999.90;;;;;;;23.66;47.98;95344.56;5009827;28;20066;-66
2022/08/04 00:32:01;;;;;;;1999.90;999.90;;;;;;;23.57;48.19;95350.31;5009956;28;20042;-65
2022/08/04 00:34:30;;;;;;;1999.90;999.90;;;;;;;23.69;48.20;95354.63;5009872;28;20517;-66
2022/08/04 00:36:56;;;;;;;1999.90;999.90;;;;;;;23.57;48.36;95342.94;5010999;28;20030;-66
2022/08/04 00:39:22;;;;;;;1999.90;999.90;;;;;;;23.51;48.35;95343.69;5009360;28;20076;-65
2022/08/04 00:42:12;;;;;;;1999.90;999.90;;;;;;;23.61;48.55;95357.31;5010463;28;20018;-67
2022/08/04 00:45:01;;;;;;;1999.90;999.90;;;;;;;23.56;48.66;95356.91;5008585;28;20037;-65
2022/08/04 00:47:47;;;;;;;1999.90;999.90;;;;;;;23.50;49.15;95348.34;5009785;28;20030;-65
2022/08/04 00:50:40;;;;;;;1999.90;999.90;;;;;;;23.44;49.52;95351.78;5009511;28;20037;-66
2022/08/04 00:53:49;;;;;;;1999.90;999.90;;;;;;;23.26;49.17;95333.50;5010294;28;20383;-65
2022/08/04 00:56:35;;;;;;;1999.90;999.90;;;;;;;23.39;49.71;95352.16;4982534;28;20046;-65
2022/08/04 00:59:33;;;;;;;1999.90;999.90;;;;;;;23.18;49.53;95333.81;4993164;28;20049;-65
2022/08/04 01:02:07;;;;;;;1999.90;999.90;;;;;;;23.31;50.02;95363.00;5008736;28;20030;-65
2022/08/04 01:04:49;;;;;;;1999.90;999.90;;;;;;;23.31;49.98;95359.50;5009462;28;20026;-65
2022/08/04 01:07:30;;;;;;;1999.90;999.90;;;;;;;23.08;50.10;95329.91;5010176;28;20064;-66
2022/08/04 01:10:03;;;;;;;1999.90;999.90;;;;;;;23.22;50.01;95356.34;5009537;28;20033;-65
2022/08/04 01:12:47;;;;;;;1999.90;999.90;;;;;;;23.14;50.37;95354.75;5008921;28;20431;-66
2022/08/04 01:15:12;;;;;;;1999.90;999.90;;;;;;;23.12;50.35;95357.06;5008563;28;20025;-67
2022/08/04 01:17:44;;;;;;;1999.90;999.90;;;;;;;22.95;50.60;95336.81;5010086;28;20485;-65
2022/08/04 01:20:19;;;;;;;1999.90;999.90;;;;;;;23.05;50.75;95355.88;5008993;28;20033;-66
2022/08/04 01:23:22;;;;;;;1999.90;999.90;;;;;;;23.00;50.92;95356.22;5009856;28;20379;-65
2022/08/04 01:25:56;;;;;;;1999.90;999.90;;;;;;;22.95;51.07;95362.00;5024010;28;20498;-67
2022/08/04 01:28:43;;;;;;;1999.90;999.90;;;;;;;22.91;50.89;95355.78;5009723;28;20029;-66
2022/08/04 01:31:25;;;;;;;1999.90;999.90;;;;;;;22.91;51.32;95369.34;5008163;28;20108;-66
2022/08/04 01:33:56;;;;;;;1999.90;999.90;;;;;;;22.87;51.16;95359.59;5007770;28;20034;-66
2022/08/04 01:36:23;;;;;;;1999.90;999.90;;;;;;;22.88;51.21;95353.00;5009047;28;20037;-66
2022/08/04 01:38:52;;;;;;;1999.90;999.90;;;;;;;22.78;51.22;95343.66;5008761;28;20061;-66
2022/08/04 01:41:19;;;;;;;1999.90;999.90;;;;;;;22.75;51.25;95347.13;4990091;28;20073;-67
2022/08/04 01:43:45;;;;;;;1999.90;999.90;;;;;;;22.81;51.44;95359.16;5014585;28;20378;-67
2022/08/04 01:46:13;;;;;;;1999.90;999.90;;;;;;;22.70;51.67;95350.19;5008663;28;20360;-66
2022/08/04 01:48:41;;;;;;;1999.90;999.90;;;;;;;22.66;52.08;95347.44;5008133;28;20030;-66
2022/08/04 01:51:08;;;;;;;1999.90;999.90;;;;;;;22.66;52.05;95347.44;5007710;28;20022;-66
2022/08/04 01:53:36;;;;;;;1999.90;999.90;;;;;;;22.52;52.01;95331.84;5007052;28;20030;-67
2022/08/04 01:56:03;;;;;;;1999.90;999.90;;;;;;;22.40;52.01;95317.81;5007360;28;20037;-66
2022/08/04 01:58:31;;;;;;;1999.90;999.90;;;;;;;22.52;52.51;95352.75;5008085;28;20061;-67
2022/08/04 02:01:03;;;;;;;1999.90;999.90;;;;;;;22.59;52.31;95369.06;5006425;28;20026;-67
2022/08/04 02:03:29;;;;;;;1999.90;999.90;;;;;;;22.53;52.61;95365.16;5007771;28;20501;-65
2022/08/04 02:06:07;;;;;;;1999.90;999.90;;;;;;;22.49;52.63;95356.22;5008144;28;20025;-64
2022/08/04 02:08:58;;;;;;;1999.90;999.90;;;;;;;22.36;52.59;95344.88;5008031;28;20032;-67
2022/08/04 02:11:24;;;;;;;1999.90;999.90;;;;;;;22.40;52.85;95356.53;5007059;28;20026;-67
2022/08/04 02:14:07;;;;;;;1999.90;999.90;;;;;;;22.48;52.83;95365.50;5009122;28;20034;-67
2022/08/04 02:16:43;;;;;;;1999.90;999.90;;;;;;;22.42;52.95;95364.28;5007589;28;20034;-64
2022/08/04 02:19:28;;;;;;;1999.90;999.90;;;;;;;22.46;52.99;95365.88;5009348;28;20068;-65
2022/08/04 02:22:05;;;;;;;1999.90;999.90;;;;;;;22.34;52.70;95347.19;5007652;28;20037;-65
2022/08/04 02:24:31;;;;;;;1999.90;999.90;;;;;;;22.36;52.96;95350.28;5024500;28;20139;-65
2022/08/04 02:26:57;;;;;;;1999.90;999.90;;;;;;;22.31;53.20;95354.13;5008506;28;20490;-65
2022/08/04 02:29:41;;;;;;;1999.90;999.90;;;;;;;22.39;53.42;95362.31;5006884;28;20026;-65
2022/08/04 02:32:18;;;;;;;1999.90;999.90;;;;;;;22.29;53.46;95345.59;5008416;28;20772;-65
2022/08/04 02:34:57;;;;;;;1999.90;999.90;;;;;;;22.46;53.31;95355.03;5008264;28;20471;-65
2022/08/04 02:37:25;;;;;;;1999.90;999.90;;;;;;;22.38;53.23;95341.81;5008032;28;20026;-66
2022/08/04 02:39:52;;;;;;;1999.90;999.90;;;;;;;22.48;52.89;95350.03;5008168;28;20034;-65
2022/08/04 02:42:18;;;;;;;1999.90;999.90;;;;;;;22.44;53.08;95354.63;5009044;28;20109;-65
2022/08/04 02:44:50;;;;;;;1999.90;999.90;;;;;;;22.37;52.87;95345.66;5008352;28;20030;-66
2022/08/04 02:47:20;;;;;;;1999.90;999.90;;;;;;;22.21;53.08;95325.00;5008144;28;20026;-66
2022/08/04 02:49:46;;;;;;;1999.90;999.90;;;;;;;22.29;53.56;95348.31;5011288;28;20026;-66
2022/08/04 02:52:13;;;;;;;1999.90;999.90;;;;;;;22.24;53.39;95350.56;5009247;28;20381;-65
2022/08/04 02:54:41;;;;;;;1999.90;999.90;;;;;;;22.15;53.83;95347.41;5010606;28;20790;-65
2022/08/04 02:57:17;;;;;;;1999.90;999.90;;;;;;;22.17;53.71;95350.53;5012631;28;20034;-65
2022/08/04 03:00:13;;;;;;;1999.90;999.90;;;;;;;22.14;53.62;95345.84;5011448;28;20041;-66
2022/08/04 03:03:22;;;;;;;1999.90;999.90;;;;;;;21.98;53.79;95332.50;4992465;28;20034;-65
2022/08/04 03:06:00;;;;;;;1999.90;999.90;;;;;;;22.06;53.99;95344.97;5001111;28;20081;-66
2022/08/04 03:08:37;;;;;;;1999.90;999.90;;;;;;;21.93;54.02;95336.31;5010260;28;20034;-66
2022/08/04 03:11:11;;;;;;;1999.90;999.90;;;;;;;21.96;54.33;95343.72;5011082;28;20475;-66
2022/08/04 03:13:44;;;;;;;1999.90;999.90;;;;;;;21.92;54.40;95334.00;5008642;28;20149;-66
2022/08/04 03:16:18;;;;;;;1999.90;999.90;;;;;;;21.89;54.48;95340.16;5011171;28;20026;-66
2022/08/04 03:19:22;;;;;;;1999.90;999.90;;;;;;;21.84;54.52;95333.13;5011212;28;20372;-66
2022/08/04 03:22:22;;;;;;;1999.90;999.90;;;;;;;21.76;54.69;95339.63;5002689;28;20034;-66
2022/08/04 03:25:22;;;;;;;1999.90;999.90;;;;;;;21.72;54.87;95339.59;5010002;28;20616;-66
2022/08/04 03:28:11;;;;;;;1999.90;999.90;;;;;;;21.68;55.17;95338.78;4992505;28;20096;-66
2022/08/04 03:31:17;;;;;;;1999.90;999.90;;;;;;;21.61;55.13;95327.09;4994840;28;20124;-66
2022/08/04 03:33:55;;;;;;;1999.90;999.90;;;;;;;21.68;55.19;95346.88;5009424;28;20022;-66
2022/08/04 03:36:48;;;;;;;1999.90;999.90;;;;;;;21.71;55.23;95342.69;5011960;28;20049;-66
2022/08/04 03:39:24;;;;;;;1999.90;999.90;;;;;;;21.62;55.06;95328.66;5009448;28;20037;-67
2022/08/04 03:42:08;;;;;;;1999.90;999.90;;;;;;;21.67;55.41;95342.63;5010584;28;20026;-66
2022/08/04 03:44:52;;;;;;;1999.90;999.90;;;;;;;21.64;55.37;95342.59;5011708;28;20068;-66
2022/08/04 03:47:51;;;;;;;1999.90;999.90;;;;;;;21.64;55.40;95340.66;5010127;28;20022;-67
2022/08/04 03:54:11;;;;;;;1999.90;999.90;;;;;;;21.66;55.30;95337.59;5010961;28;20060;-66
2022/08/04 03:57:00;;;;;;;1999.90;999.90;;;;;;;21.71;55.14;95348.09;5010611;28;20453;-66
2022/08/04 03:59:31;;;;;;;1999.90;999.90;;;;;;;;;;5010997;28;20033;-66
2022/08/04 04:02:24;;;;;;;1999.90;999.90;;;;;;;21.64;55.09;95343.34;5010649;28;20048;-66
2022/08/04 04:05:02;;;;;;;1999.90;999.90;;;;;;;21.62;55.31;95348.38;5011387;28;20038;-66
2022/08/04 04:07:46;;;;;;;1999.90;999.90;;;;;;;21.59;55.36;95345.63;5008957;28;20026;-66
2022/08/04 04:10:23;;;;;;;1999.90;999.90;;;;;;;21.62;55.36;95345.66;5009381;28;20038;-65
2022/08/04 04:13:03;;;;;;;1999.90;999.90;;;;;;;21.65;55.21;95350.34;5009520;28;20382;-66
2022/08/04 04:16:05;;;;;;;1999.90;999.90;;;;;;;21.69;55.25;95345.72;5007867;28;20113;-65
2022/08/04 04:18:49;;;;;;;1999.90;999.90;;;;;;;21.77;55.37;95354.72;5009424;28;20029;-66
2022/08/04 04:21:37;;;;;;;1999.90;999.90;;;;;;;21.86;54.88;95349.03;5008764;28;20041;-66
2022/08/04 04:24:24;;;;;;;1999.90;999.90;;;;;;;21.91;54.71;95352.19;4991197;28;20041;-65
2022/08/04 04:27:06;;;;;;;1999.90;999.90;;;;;;;21.97;54.64;95356.09;5026172;28;20030;-66
2022/08/04 04:29:40;;;;;;;1999.90;999.90;;;;;;;22.05;54.50;95360.44;5008120;28;20536;-66
2022/08/04 04:32:16;;;;;;;1999.90;999.90;;;;;;;22.10;54.34;95353.13;5007613;28;20026;-67
2022/08/04 04:34:53;;;;;;;1999.90;999.90;;;;;;;22.27;54.29;95358.75;5008651;28;20094;-66
2022/08/04 04:37:32;;;;;;;1999.90;999.90;;;;;;;22.38;53.62;95337.16;5010835;28;20398;-66
2022/08/04 04:40:42;;;;;;;1999.90;999.90;;;;;;;22.79;52.83;95361.47;5007211;28;20069;-66
2022/08/04 04:43:35;;;;;;;1999.90;999.90;;;;;;;23.15;52.51;95357.09;4993199;28;20554;-66
2022/08/04 04:46:29;;;;;;;1999.90;999.90;;;;;;;23.33;51.75;95363.38;5025289;28;20033;-68
2022/08/04 04:49:36;;;;;;;1999.90;999.90;;;;;;;23.59;51.22;95356.13;5008463;28;20080;-65
2022/08/04 04:52:12;;;;;;;1999.90;999.90;;;;;;;23.82;49.92;95362.06;4976364;28;20120;-65
2022/08/04 04:54:59;;;;;;;1999.90;999.90;;;;;;;24.09;49.91;95367.94;5008294;28;20026;-63
2022/08/04 04:57:29;;;;;;;1999.90;999.90;;;;;;;24.31;49.06;95366.06;5001885;28;20038;-64
2022/08/04 04:59:58;;;;;;;1999.90;999.90;;;;;;;24.53;48.95;95361.44;5002610;28;20030;-66
2022/08/04 05:02:42;;;;;;;1999.90;999.90;;;;;;;24.83;48.22;95365.69;5008773;28;20494;-65
2022/08/04 05:05:42;;;;;;;1999.90;999.90;;;;;;;25.05;47.67;95358.28;5009345;28;20116;-65
2022/08/04 05:08:34;;;;;;;1999.90;999.90;;;;;;;25.22;47.04;95365.66;5009148;28;20121;-65
2022/08/04 05:11:37;;;;;;;1999.90;999.90;;;;;;;25.33;46.76;95369.13;5009237;28;20037;-65
2022/08/04 05:14:17;;;;;;;1999.90;999.90;;;;;;;25.48;46.60;95363.63;5007729;28;20037;-65
2022/08/04 05:16:45;;;;;;;1999.90;999.90;;;;;;;25.57;46.46;95364.75;5009063;28;20426;-65
2022/08/04 05:19:23;;;;;;;1999.90;999.90;;;;;;;25.68;46.10;95364.72;5008850;28;20486;-66
2022/08/04 05:21:53;;;;;;;1999.90;999.90;;;;;;;25.81;45.82;95363.13;5008291;28;20030;-65
2022/08/04 05:24:21;;;;;;;1999.90;999.90;;;;;;;25.88;45.49;95348.69;5008942;28;20395;-65
2022/08/04 05:26:51;;;;;;;1999.90;999.90;;;;;;;25.97;45.46;95345.53;5024869;28;20501;-81
2022/08/04 05:29:33;;;;;;;1999.90;999.90;;;;;;;26.17;45.21;95361.00;5011151;28;20048;-80
2022/08/04 05:32:02;;;;;;;1999.90;999.90;;;;;;;26.29;45.21;95353.50;5004716;28;20296;-79
2022/08/04 05:34:32;;;;;;;1999.90;999.90;;;;;;;26.29;44.97;95348.06;5008484;28;20135;-79
2022/08/04 05:37:02;;;;;;;1999.90;999.90;;;;;;;26.21;45.13;95331.00;5009509;28;20033;-78
2022/08/04 05:39:29;;;;;;;1999.90;999.90;;;;;;;26.23;45.12;95328.63;5029928;28;20025;-78
2022/08/04 05:41:57;;;;;;;1999.90;999.90;;;;;;;26.20;45.02;95337.59;5009990;28;20085;-78
2022/08/04 05:44:25;;;;;;;1999.90;999.90;;;;;;;26.26;45.29;95348.84;5008760;28;20379;-76
2022/08/04 05:46:53;;;;;;;1999.90;999.90;;;;;;;26.31;45.32;95359.34;5015862;28;20505;-77
2022/08/04 05:49:21;;;;;;;1999.90;999.90;;;;;;;26.18;45.68;95342.69;5024963;28;20025;-78
2022/08/04 05:51:48;;;;;;;1999.90;999.90;;;;;;;26.16;45.50;95331.41;5020027;28;20126;-76
2022/08/04 05:54:15;;;;;;;1999.90;999.90;;;;;;;26.30;45.54;95355.84;5000233;28;20029;-77
2022/08/04 05:56:42;;;;;;;1999.90;999.90;;;;;;;26.25;45.58;95339.91;4990356;28;20061;-74
2022/08/04 05:59:10;;;;;;;1999.90;999.90;;;;;;;26.22;45.29;95329.81;5021342;28;20090;-74
2022/08/04 06:01:38;;;;;;;1999.90;999.90;;;;;;;26.33;45.49;95346.84;5009849;28;20077;-76
2022/08/04 06:04:05;;;;;;;1999.90;999.90;;;;;;;26.41;45.14;95359.28;5008212;28;20443;-75
2022/08/04 06:06:31;;;;;;;1999.90;999.90;;;;;;;26.43;45.21;95345.25;5009536;28;20037;-75
2022/08/04 06:08:57;;;;;;;1999.90;999.90;;;;;;;26.39;45.21;95337.06;5008561;28;20117;-75
2022/08/04 06:11:25;;;;;;;1999.90;999.90;;;;;;;26.52;45.16;95339.38;5016006;28;20034;-76
2022/08/04 06:13:57;;;;;;;1999.90;999.90;;;;;;;26.77;44.83;95364.50;5044562;28;20025;-74
2022/08/04 06:16:23;;;;;;;;;;;;;;;26.85;44.77;95365.19;5010335;28;20037;-70
2022/08/04 06:18:53;;;;;;;1999.90;999.90;;;;;;;26.94;44.48;95363.53;5009495;28;19918;-70
2022/08/04 06:21:21;;;;;;;1999.90;999.90;;;;;;;27.00;44.98;95363.09;5032962;28;20403;-73
2022/08/04 06:23:48;;;;;;;1999.90;999.90;;;;;;;26.94;44.37;95338.97;5005311;28;20065;-72
2022/08/04 06:26:18;;;;;;;1999.90;999.90;;;;;;;27.09;43.94;95347.84;5012777;28;20022;-69
2022/08/04 06:28:48;;;;;;;1999.90;999.90;;;;;;;27.36;43.63;95366.28;5013627;28;20026;-67
2022/08/04 06:31:30;;;;;;;1999.90;999.90;;;;;;;27.39;43.58;95349.84;5013956;28;20433;-70
2022/08/04 06:34:01;;;;;;;1999.90;999.90;;;;;;;27.35;43.56;95335.47;5014749;28;20053;-68
2022/08/04 06:36:27;;;;;;;1999.90;999.90;;;;;;;27.63;43.77;95352.69;5012209;28;20108;-69
2022/08/04 06:38:53;;;;;;;1999.90;999.90;;;;;;;27.83;43.47;95361.84;5011664;28;20033;-68
2022/08/04 06:41:19;;;;;;;1999.90;999.90;;;;;;;27.79;43.13;95343.94;5011475;28;20041;-68
2022/08/04 06:43:45;;;;;;;1999.90;999.90;;;;;;;27.93;42.85;95343.75;5011658;28;20033;-70
2022/08/04 06:46:13;;;;;;;1999.90;999.90;;;;;;;28.04;42.68;95343.59;5012601;28;20112;-69
2022/08/04 06:48:39;;;;;;;1999.90;999.90;;;;;;;28.04;42.27;95340.88;5009992;28;20568;-71
2022/08/04 06:51:05;;;;;;;1999.90;999.90;;;;;;;28.22;41.96;95360.53;5012331;28;20124;-72
2022/08/04 06:53:30;;;;;;;1999.90;999.90;;;;;;;28.36;41.80;95365.84;5012339;28;20026;-72
2022/08/04 06:55:57;;;;;;;1999.90;999.90;;;;;;;28.42;42.20;95361.44;5011774;28;20095;-71
2022/08/04 06:58:24;;;;;;;1999.90;999.90;;;;;;;28.44;41.64;95352.81;5012360;28;20026;-70
2022/08/04 07:00:50;;;;;;;1999.90;999.90;;;;;;;28.41;41.42;95343.47;5013822;28;20062;-70
2022/08/04 07:03:17;;;;;;;1999.90;999.90;;;;;;;28.37;41.10;95331.03;5030360;28;20040;-70
2022/08/04 07:05:46;;;;;;;1999.90;999.90;;;;;;;28.58;40.71;95351.81;5012449;28;20038;-71
2022/08/04 07:08:12;;;;;;;1999.90;999.90;;;;;;;28.60;40.95;95335.75;5013367;28;20030;-70
2022/08/04 07:10:38;;;;;;;1999.90;999.90;;;;;;;28.63;40.82;95334.94;5012901;28;20037;-71
2022/08/04 07:13:04;;;;;;;1999.90;999.90;;;;;;;28.70;40.88;95357.47;5011719;28;20501;-71
2022/08/04 07:15:31;;;;;;;1999.90;999.90;;;;;;;28.76;40.14;95338.59;5028703;28;20105;-72
2022/08/04 07:18:02;;;;;;;1999.90;999.90;;;;;;;28.72;40.25;95344.16;5012622;28;20034;-73
2022/08/04 07:20:28;;;;;;;1999.90;999.90;;;;;;;28.97;40.36;95368.41;5027022;28;20117;-72
2022/08/04 07:22:54;;;;;;;1999.90;999.90;;;;;;;29.05;40.17;95349.88;5011404;28;20030;-74
2022/08/04 07:25:20;;;;;;;1999.90;999.90;;;;;;;29.19;39.81;95352.34;5012198;28;20088;-74
2022/08/04 07:27:45;;;;;;;1999.90;999.90;;;;;;;28.79;39.79;95365.16;5012826;28;20026;-72
2022/08/04 07:30:13;;;;;;;1999.90;999.90;;;;;;;28.67;39.86;95363.78;5008282;28;20030;-73
2022/08/04 07:32:40;;;;;;;1999.90;999.90;;;;;;;28.46;40.18;95362.16;5014877;28;20088;-72
2022/08/04 07:35:06;;;;;;;1999.90;999.90;;;;;;;28.25;40.65;95346.03;5005170;28;20018;-73
2022/08/04 07:37:32;;;;;;;1999.90;999.90;;;;;;;28.97;39.41;95348.44;5011504;28;20080;-73
2022/08/04 07:39:57;;;;;;;1999.90;999.90;;;;;;;29.03;39.46;95324.09;5005166;28;20030;-72
2022/08/04 07:42:23;;;;;;;1999.90;999.90;;;;;;;29.35;39.29;95351.66;5009381;28;20045;-74
2022/08/04 07:44:48;;;;;;;1999.90;999.90;;;;;;;29.24;38.79;95334.66;5011425;28;20028;-72
2022/08/04 07:47:14;;;;;;;1999.90;999.90;;;;;;;29.63;38.73;95357.81;5024515;28;20044;-73
2022/08/04 07:49:43;;;;;;;1999.90;999.90;;;;;;;29.80;38.55;95366.88;5013220;28;20105;-72
2022/08/04 07:52:09;;;;;;;1999.90;999.90;;;;;;;29.93;38.18;95351.31;5012068;28;20076;-72
2022/08/04 07:54:35;;;;;;;1999.90;999.90;;;;;;;29.99;38.05;95336.69;5012009;28;20110;-73
2022/08/04 07:57:01;;;;;;;1999.90;999.90;;;;;;;30.14;37.93;95358.34;5009930;28;20033;-72
2022/08/04 07:59:27;;;;;;;1999.90;999.90;;;;;;;30.04;37.99;95340.88;5043644;28;20038;-72
2022/08/04 08:01:53;;;;;;;1999.90;999.90;;;;;;;30.02;37.61;95348.78;5027469;28;20483;-72
2022/08/04 08:04:21;;;;;;;1999.90;999.90;;;;;;;30.10;36.97;95349.38;5045498;28;20032;-72
2022/08/04 08:06:46;;;;;;;1999.90;999.90;;;;;;;30.32;37.35;95345.00;5031625;28;20029;-73
2022/08/04 08:09:22;;;;;;;1999.90;999.90;;;;;;;30.17;37.24;95369.25;5031656;28;20486;-72
2022/08/04 08:11:50;;;;;;;1999.90;999.90;;;;;;;29.16;38.44;95344.97;5019345;28;20033;-72
2022/08/04 08:14:17;;;;;;;1999.90;999.90;;;;;;;29.63;38.41;95366.03;5009893;28;20037;-72
2022/08/04 08:16:43;;;;;;;1999.90;999.90;;;;;;;30.15;38.23;95371.66;5026541;28;20034;-72
2022/08/04 08:19:09;;;;;;;1999.90;999.90;;;;;;;30.37;37.69;95360.97;5026681;28;20151;-71
2022/08/04 08:21:34;;;;;;;1999.90;999.90;;;;;;;30.09;37.33;95356.06;5031356;28;20029;-72
2022/08/04 08:24:00;;;;;;;1999.90;999.90;;;;;;;30.48;37.27;95366.97;5030432;28;20517;-71
2022/08/04 08:26:26;;;;;;;1999.90;999.90;;;;;;;30.40;35.90;95357.34;5010683;28;20029;-72
2022/08/04 08:28:54;;;;;;;1999.90;999.90;;;;;;;30.40;36.34;95362.81;5011807;28;20506;-72
2022/08/04 08:31:19;;;;;;;1999.90;999.90;;;;;;;30.31;36.83;95368.16;5010618;28;20081;-71
2022/08/04 08:33:45;;;;;;;1999.90;999.90;;;;;;;30.13;36.50;95343.06;5009162;28;20057;-71
2022/08/04 08:36:29;;;;;;;1999.90;999.90;;;;;;;30.12;36.34;95364.25;5011470;28;20022;-71
2022/08/04 08:39:04;;;;;;;1999.90;999.90;;;;;;;30.28;35.39;95345.06;5011306;28;20030;-72
2022/08/04 08:41:50;;;;;;;1999.90;999.90;;;;;;;30.79;36.08;95358.41;5010822;28;20068;-72
2022/08/04 08:44:53;;;;;;;1999.90;999.90;;;;;;;30.69;35.30;95365.69;5008420;28;20037;-72
2022/08/04 08:47:58;;;;;;;1999.90;999.90;;;;;;;30.76;36.16;95364.75;5009741;28;20061;-71
2022/08/04 08:50:50;;;;;;;1999.90;999.90;;;;;;;30.82;35.12;95359.53;5008809;28;20044;-71
2022/08/04 08:53:15;;;;;;;;;;;;;;;30.60;35.09;95359.25;5011240;28;20025;-72
2022/08/04 08:56:18;;;;;;;1999.90;999.90;;;;;;;30.38;35.95;95353.50;5011279;28;19921;-72
2022/08/04 08:59:22;;;;;;;1999.90;999.90;;;;;;;30.84;35.06;95363.38;4991660;28;20131;-71
2022/08/04 09:01:52;;;;;;;1999.90;999.90;;;;;;;31.11;34.90;95362.31;4989967;28;20026;-72
2022/08/04 09:04:38;;;;;;;1999.90;999.90;;;;;;;31.25;34.57;95359.97;5002897;28;20114;-71
2022/08/04 09:07:18;;;;;;;1999.90;999.90;;;;;;;31.31;34.95;95376.75;5010908;28;20045;-71
2022/08/04 09:09:53;;;;;;;1999.90;999.90;;;;;;;31.24;34.22;95369.44;5010709;28;20030;-72
2022/08/04 09:12:32;;;;;;;1999.90;999.90;;;;;;;31.33;33.35;95363.34;5008007;28;20033;-71
2022/08/04 09:15:26;;;;;;;1999.90;999.90;;;;;;;31.16;34.71;95339.81;5010808;28;20022;-72
2022/08/04 09:17:59;;;;;;;1999.90;999.90;;;;;;;31.06;33.53;95358.88;4963906;28;20042;-72
2022/08/04 09:20:39;;;;;;;1999.90;999.90;;;;;;;30.83;33.92;95352.84;5029828;28;20474;-72
2022/08/04 09:23:14;;;;;;;1999.90;999.90;;;;;;;31.11;33.15;95354.09;5017792;28;20029;-72
2022/08/04 09:25:48;;;;;;;1999.90;999.90;;;;;;;31.02;32.63;95350.00;5010572;28;20029;-73
2022/08/04 09:28:25;;;;;;;1999.90;999.90;;;;;;;31.64;32.53;95362.91;5008366;28;20120;-69
2022/08/04 09:30:51;;;;;;;1999.90;999.90;;;;;;;31.39;33.34;95361.63;5010694;28;20475;-72
2022/08/04 09:33:33;;;;;;;1999.90;999.90;;;;;;;31.12;32.12;95341.88;5008089;28;20041;-73
2022/08/04 09:36:13;;;;;;;1999.90;999.90;;;;;;;31.41;32.09;95363.91;5008937;28;20483;-72
2022/08/04 09:38:54;;;;;;;1999.90;999.90;;;;;;;31.14;32.91;95356.75;5025402;28;20029;-73
2022/08/04 09:41:31;;;;;;;1999.90;999.90;;;;;;;31.32;32.70;95359.03;5025176;28;20084;-70
2022/08/04 09:44:21;;;;;;;1999.90;999.90;;;;;;;31.11;32.15;95340.34;5009135;28;20340;-74
2022/08/04 09:47:03;;;;;;;1999.90;999.90;;;;;;;31.05;31.78;95345.59;5004713;28;20474;-73
2022/08/04 09:49:46;;;;;;;1999.90;999.90;;;;;;;31.71;31.34;95360.72;5021728;28;20068;-74
2022/08/04 09:52:22;;;;;;;1999.90;999.90;;;;;;;31.46;30.95;95344.16;5013281;28;20030;-73
2022/08/04 09:55:15;;;;;;;1999.90;999.90;;;;;;;31.93;31.25;95358.13;5010120;28;20013;-70
2022/08/04 09:57:47;;;;;;;1999.90;999.90;;;;;;;31.58;30.07;95349.69;5012239;28;20498;-75
2022/08/04 10:00:15;;;;;;;1999.90;999.90;;;;;;;31.87;30.13;95332.38;5014026;28;20474;-75
2022/08/04 10:02:54;;;;;;;1999.90;999.90;;;;;;;31.39;29.93;95360.84;5014066;28;20475;-76
2022/08/04 10:05:21;;;;;;;1999.90;999.90;;;;;;;31.67;30.75;95340.78;5029067;28;20113;-76
2022/08/04 10:08:13;;;;;;;1999.90;999.90;;;;;;;32.18;30.04;95351.91;5032801;28;20381;-76
2022/08/04 10:11:02;;;;;;;1999.90;999.90;;;;;;;32.41;29.55;95348.09;5032736;28;20461;-76
2022/08/04 10:14:00;;;;;;;1999.90;999.90;;;;;;;32.38;29.32;95324.19;5015177;28;20037;-75
2022/08/04 10:16:39;;;;;;;1999.90;999.90;;;;;;;32.15;29.19;95346.53;5013881;28;20034;-76
2022/08/04 10:19:19;;;;;;;1999.90;999.90;;;;;;;32.24;28.67;95330.88;5006300;28;20026;-76
2022/08/04 10:21:55;;;;;;;1999.90;999.90;;;;;;;32.72;28.35;95328.22;5009574;28;20030;-76
2022/08/04 10:24:58;;;;;;;1999.90;999.90;;;;;;;32.51;28.47;95344.22;5009101;28;20451;-76
2022/08/04 10:27:29;;;;;;;1999.90;999.90;;;;;;;32.65;28.31;95334.72;5015869;28;20096;-78
2022/08/04 10:30:02;;;;;;;1999.90;999.90;;;;;;;32.30;28.65;95344.88;5012613;28;20026;-66
2022/08/04 10:32:41;;;;;;;1999.90;999.90;;;;;;;32.73;28.45;95338.78;5011327;28;20029;-66
2022/08/04 10:35:20;;;;;;;1999.90;999.90;;;;;;;32.24;28.26;95346.63;5027748;28;20486;-66
2022/08/04 10:38:12;;;;;;;1999.90;999.90;;;;;;;32.04;27.99;95339.38;5013374;28;20021;-67
2022/08/04 10:40:45;;;;;;;1999.90;999.90;;;;;;;32.14;28.02;95336.69;5013413;28;20025;-67
2022/08/04 10:43:38;;;;;;;1999.90;999.90;;;;;;;32.51;27.53;95337.94;5012080;28;20053;-66
2022/08/04 10:46:08;;;;;;;1999.90;999.90;;;;;;;32.34;26.96;95331.75;5012511;28;20025;-67
2022/08/04 10:48:49;;;;;;;1999.90;999.90;;;;;;;32.65;28.72;95339.47;5012728;28;20029;-66
2022/08/04 10:51:38;;;;;;;1999.90;999.90;;;;;;;32.39;27.03;95327.72;4993595;28;20479;-66
2022/08/04 10:54:09;;;;;;;1999.90;999.90;;;;;;;32.72;26.92;95328.22;5008644;28;20125;-66
2022/08/04 10:56:40;;;;;;;1999.90;999.90;;;;;;;32.40;26.22;95315.47;5011158;28;20137;-67
2022/08/04 10:59:20;;;;;;;1999.90;999.90;;;;;;;32.61;27.74;95284.50;5027165;28;20065;-65
2022/08/04 11:01:49;;;;;;;1999.90;999.90;;;;;;;33.25;27.06;95318.16;5003561;28;20498;-65
2022/08/04 11:04:43;;;;;;;1999.90;999.90;;;;;;;33.24;27.51;95324.13;5038773;28;20021;-65
2022/08/04 11:07:10;;;;;;;1999.90;999.90;;;;;;;32.71;26.79;95324.72;5025335;28;20048;-65
2022/08/04 11:09:38;;;;;;;1999.90;999.90;;;;;;;32.56;27.30;95321.63;5032694;28;20083;-65
2022/08/04 11:12:14;;;;;;;1999.90;999.90;;;;;;;33.02;27.37;95318.59;5030657;28;20056;-66
2022/08/04 11:15:03;;;;;;;1999.90;999.90;;;;;;;32.54;26.71;95279.22;5012536;28;20411;-66
2022/08/04 11:17:36;;;;;;;1999.90;999.90;;;;;;;33.22;26.77;95321.03;5011445;28;20033;-66
2022/08/04 11:20:25;;;;;;;1999.90;999.90;;;;;;;33.13;26.70;95316.22;5022425;28;20117;-66
2022/08/04 11:23:01;;;;;;;1999.90;999.90;;;;;;;33.11;26.12;95305.63;5030892;28;20045;-66
2022/08/04 11:25:49;;;;;;;1999.90;999.90;;;;;;;32.92;25.38;95294.94;5032409;28;20392;-66
2022/08/04 11:28:24;;;;;;;1999.90;999.90;;;;;;;33.03;26.53;95315.38;5022062;28;20041;-65
2022/08/04 11:30:56;;;;;;;1999.90;999.90;;;;;;;32.88;25.60;95324.56;5011186;28;20022;-65
2022/08/04 11:34:12;;;;;;;1999.90;999.90;;;;;;;32.84;25.70;95310.88;5012160;28;20022;-66
2022/08/04 11:36:51;;;;;;;1999.90;999.90;;;;;;;32.59;25.99;95309.72;4967449;28;20120;-66
2022/08/04 11:39:40;;;;;;;1999.90;999.90;;;;;;;33.21;25.99;95306.47;4992585;28;20031;-65